Namao — CZ9742 — position and weather

sailwx.info

Track history (hours):
 
Tides and Currents Weather Stations Pressure Air Temp Water Temp Dewpoint Dewpoint Depression Visibility Wind Speed Wind Dir Waves Ship Positions

Oceanographic research ship Namao (Canada)

Last reported at 2017-Mar-29 12:00 UTC. Time now 2017-Mar-29 13:16 UTC.
Position N 50°36' W 096°54'.

Wind from 040 at 5 knots

Barometer 1023.2 mb
Air temperature 1.2 ° C
Dewpoint 1.1 ° C

Date/timePositionNaut miles runAvg speedWind from/ knotsBaromVisibWave heightAir tempDewpointWater temp
2017-Mar-29 12:00N 50°36' W 096°54'0 0.0 040 / 51023.2 1.2 1.1
2017-Mar-29 11:00N 50°36' W 096°54'0 0.0 080 / 31023.4 1.5 0.8
2017-Mar-29 10:00N 50°36' W 096°54'0 0.0 060 / 51023.6 1.8-0.4
2017-Mar-29 09:00N 50°36' W 096°54'0 0.0 120 / 21024.1 2.3-1.7
2017-Mar-29 08:00N 50°36' W 096°54'0 0.0 010 / 41024.0 1.2-0.6
2017-Mar-29 07:00N 50°36' W 096°54'0 0.0 060 / 61024.3 1.3-0.2
2017-Mar-29 06:00N 50°36' W 096°54'0 0.0 020 / 61024.7 1.1 0.7
2017-Mar-29 05:00N 50°36' W 096°54'0 0.0 020 / 61025.3 1.2 0.2
2017-Mar-29 04:00N 50°36' W 096°54'0 0.0 010 / 61025.6 1.6-1.6
2017-Mar-29 03:00N 50°36' W 096°54'0 0.0 360 / 81025.3 1.9-2.9
2017-Mar-29 02:00N 50°36' W 096°54'0 0.0 010 / 71025.1 2.4-3.0
2017-Mar-29 01:00N 50°36' W 096°54'0 0.0 360 / 51025.1 1.5-1.8
2017-Mar-29 00:00N 50°36' W 096°54'0 0.0 350 / 51025.3 3.0-5.2
2017-Mar-28 23:00N 50°36' W 096°54'0 0.0 350 / 81025.2 2.7-5.0
2017-Mar-28 22:00N 50°36' W 096°54'0 0.0 360 / 91025.2 1.7-4.6
2017-Mar-28 21:00N 50°36' W 096°54'0 0.0 010 / 91025.5 1.9-4.7
2017-Mar-28 20:00N 50°36' W 096°54'0 0.0 010 / 91026.1 1.3-2.3
2017-Mar-28 19:00N 50°36' W 096°54'0 0.0 010 / 101026.4 -0.2-1.4
2017-Mar-28 18:00N 50°36' W 096°54'0 0.0 010 / 111027.1 -1.3-1.7
2017-Mar-28 17:00N 50°36' W 096°54'0 0.0 010 / 91027.3 -1.6-2.4
2017-Mar-28 16:00N 50°36' W 096°54'0 0.0 010 / 91026.5 -2.7-2.9
2017-Mar-28 15:00N 50°36' W 096°54'0 0.0 010 / 101026.4 -3.4-3.5
2017-Mar-28 14:00N 50°36' W 096°54'0 0.0 360 / 91025.9 -3.7-3.8
2017-Mar-28 13:00N 50°36' W 096°54'0 0.0 010 / 111025.2 -4.3-4.4
2017-Mar-28 12:00N 50°36' W 096°54'0 0.0 360 / 101024.9 -3.8-3.9
2017-Mar-28 11:00N 50°36' W 096°54'0 0.0 010 / 121024.5 -3.0-3.5
2017-Mar-28 10:00N 50°36' W 096°54'0 0.0 350 / 111023.9 -2.8-3.2
2017-Mar-28 09:00N 50°36' W 096°54'0 0.0 360 / 121023.5 -2.3-3.1
2017-Mar-28 08:00N 50°36' W 096°54'0 0.0 350 / 111023.5 -1.9-2.9
2017-Mar-28 07:00N 50°36' W 096°54'0 0.0 360 / 141023.0 -2.0-2.3
2017-Mar-28 06:00N 50°36' W 096°54'0 0.0 360 / 131022.6 -1.4-2.3
2017-Mar-28 05:00N 50°36' W 096°54'0 0.0 350 / 131022.0 -0.6-2.6
2017-Mar-28 04:00N 50°36' W 096°54'0 0.0 350 / 121021.5 -0.4-2.5
2017-Mar-28 03:00N 50°36' W 096°54'0 0.0 330 / 91020.9 0.5-1.8
2017-Mar-28 02:00N 50°36' W 096°54'0 0.0 350 / 61020.5 0.5-0.4
2017-Mar-28 01:00N 50°36' W 096°54'0 0.0 350 / 111019.6 2.0-1.4
2017-Mar-28 00:00N 50°36' W 096°54'0 0.0 010 / 111019.4 2.1-0.3
2017-Mar-27 23:00N 50°36' W 096°54'0 0.0 010 / 101019.0 2.8-0.2
2017-Mar-27 22:00N 50°36' W 096°54'0 0.0 010 / 101018.9 2.9-0.4
2017-Mar-27 21:00N 50°36' W 096°54'0 0.0 010 / 121018.7 3.0 0.2
2017-Mar-27 20:00N 50°36' W 096°54'0 0.0 010 / 121018.4 2.1 2.0
2017-Mar-27 19:00N 50°36' W 096°54'0 0.0 010 / 131018.4 1.4 1.4
2017-Mar-27 18:00N 50°36' W 096°54'0 0.0 010 / 111018.4 1.1 1.1
2017-Mar-27 17:00N 50°36' W 096°54'0 0.0 010 / 121018.3 1.0 1.0
2017-Mar-27 16:00N 50°36' W 096°54'0 0.0 010 / 111018.2 1.4-1.1
2017-Mar-27 15:00N 50°36' W 096°54'0 0.0 360 / 91018.3 0.2-2.2
2017-Mar-27 14:00N 50°36' W 096°54'0 0.0 350 / 71017.7 -0.1-2.8
2017-Mar-27 13:00N 50°36' W 096°54'0 0.0 330 / 41017.2 -0.5-1.8
2017-Mar-27 12:00N 50°36' W 096°54'0 0.0 030 / 51016.7 -0.3-2.1
2017-Mar-27 11:00N 50°36' W 096°54'0 0.0 010 / 71015.9 -0.6-0.8
2017-Mar-27 10:00N 50°36' W 096°54'0 0.0 020 / 71016.6 -0.0-3.0
2017-Mar-27 09:00N 50°36' W 096°54'0 0.0 340 / 31017.3 0.4-4.6
2017-Mar-27 08:00N 50°36' W 096°54'0 0.0 010 / 71016.3 0.1-2.1
2017-Mar-27 07:00N 50°36' W 096°54'0 0.0 010 / 61016.0 -0.1-0.2
2017-Mar-27 06:00N 50°36' W 096°54'0 0.0 010 / 51016.1 -0.3-0.2
2017-Mar-27 05:00N 50°36' W 096°54'0 0.0 340 / 21016.1 -0.4-0.3
2017-Mar-27 04:00N 50°36' W 096°54'0 0.0 270 / 51015.9 -0.1-0.0
2017-Mar-27 03:00N 50°36' W 096°54'0 0.0 270 / 31015.6 -0.1-0.0
2017-Mar-27 02:00N 50°36' W 096°54'0 0.0 300 / 11015.7 0.6 0.6
2017-Mar-27 01:00N 50°36' W 096°54'0 0.0 320 / 31015.6 1.2 1.2
2017-Mar-27 00:00N 50°36' W 096°54'0 0.0 070 / 11015.3 4.2 2.8
2017-Mar-26 23:00N 50°36' W 096°54'0 0.0 1015.3 4.4 3.5
2017-Mar-26 22:00N 50°36' W 096°54'0 0.0 060 / 51015.5 2.8 2.7
2017-Mar-26 21:00N 50°36' W 096°54'0 0.0 050 / 61015.8 1.7 1.8
2017-Mar-26 20:00N 50°36' W 096°54'0 0.0 060 / 61015.9 1.7 1.8
2017-Mar-26 19:00N 50°36' W 096°54'0 0.0 070 / 61016.0 1.5 1.7
2017-Mar-26 18:00N 50°36' W 096°54'0 0.0 060 / 71015.9 1.3 1.5
2017-Mar-26 17:00N 50°36' W 096°54'0 0.0 020 / 121015.5 1.5 1.6
2017-Mar-26 16:00N 50°36' W 096°54'0 0.0 020 / 61015.4 2.0 2.1
2017-Mar-26 15:00N 50°36' W 096°54'0 0.0 350 / 61014.8 1.9 2.0
2017-Mar-26 14:00N 50°36' W 096°54'0 0.0 270 / 21015.0 0.9 1.2
2017-Mar-26 13:00N 50°36' W 096°54'0 0.0 170 / 21014.8 -0.3-0.0
2017-Mar-26 12:00N 50°36' W 096°54'0 0.0 210 / 11014.4 0.1 0.4
2017-Mar-26 11:00N 50°36' W 096°54'0 0.0 200 / 31014.2 0.3 0.5
2017-Mar-26 10:00N 50°36' W 096°54'0 0.0 190 / 51014.1 0.5 0.7
2017-Mar-26 09:00N 50°36' W 096°54'0 0.0 190 / 71014.1 0.9 1.0
2017-Mar-26 08:00N 50°36' W 096°54'0 0.0 200 / 81014.0 1.1 1.1
2017-Mar-26 07:00N 50°36' W 096°54'0 0.0 190 / 131013.6 1.2 1.3
2017-Mar-26 06:00N 50°36' W 096°54'0 0.0 190 / 141013.6 1.2 1.2
2017-Mar-26 05:00N 50°36' W 096°54'0 0.0 190 / 151014.0 1.4 1.4
2017-Mar-26 04:00N 50°36' W 096°54'0 0.0 190 / 161014.0 1.6 1.5
2017-Mar-26 03:00N 50°36' W 096°54'0 0.0 180 / 191014.4 1.5 1.5
2017-Mar-26 02:00N 50°36' W 096°54'0 0.0 190 / 121014.8 1.6 1.6
2017-Mar-26 01:00N 50°36' W 096°54'0 0.0 180 / 131014.7 2.3 2.2
2017-Mar-26 00:00N 50°36' W 096°54'0 0.0 180 / 171014.6 3.0 1.2
2017-Mar-25 23:00N 50°36' W 096°54'0 0.0 170 / 191014.9 2.4 1.3
2017-Mar-25 22:00N 50°36' W 096°54'0 0.0 170 / 221015.2 2.3 1.0
2017-Mar-25 21:00N 50°36' W 096°54'0 0.0 170 / 251015.6 2.2 1.0
2017-Mar-25 20:00N 50°36' W 096°54'0 0.0 160 / 221017.1 2.1 1.5
2017-Mar-25 19:00N 50°36' W 096°54'0 0.0 160 / 191018.5 2.5 1.5
2017-Mar-25 18:00N 50°36' W 096°54'0 0.0 160 / 181019.0 1.8 1.7
2017-Mar-25 17:00N 50°36' W 096°54'0 0.0 160 / 181019.6 1.6 1.5
2017-Mar-25 16:00N 50°36' W 096°54'0 0.0 160 / 131020.5 0.1 0.1
2017-Mar-25 15:00N 50°36' W 096°54'0 0.0 160 / 111021.0 -1.3-1.3
2017-Mar-25 14:00N 50°36' W 096°54'0 0.0 140 / 111021.2 -1.9-1.9
2017-Mar-25 13:00N 50°36' W 096°54'0 0.0 140 / 111021.9 -2.3-2.3
2017-Mar-25 12:00N 50°36' W 096°54'0 0.0 130 / 81022.4 -2.2-2.2
2017-Mar-25 11:00N 50°36' W 096°54'0 0.0 150 / 41023.5 -3.4-3.4
2017-Mar-25 10:00N 50°36' W 096°54'0 0.0 120 / 61023.9 -3.1-3.1
2017-Mar-25 09:00N 50°36' W 096°54'0 0.0 150 / 41024.4 -4.1-4.1
2017-Mar-25 08:00N 50°36' W 096°54'0 0.0 160 / 31025.2 -3.6-3.7
2017-Mar-25 07:00N 50°36' W 096°54'0 0.0 150 / 31025.3 -3.4-3.5
2017-Mar-25 06:00N 50°36' W 096°54'0 0.0 150 / 31025.7 -3.1-3.1
2017-Mar-25 05:00N 50°36' W 096°54'0 0.0 140 / 21025.8 -2.5-2.5
2017-Mar-25 04:00N 50°36' W 096°54'0 0.0 180 / 41026.1 -2.7-2.8
2017-Mar-25 03:00N 50°36' W 096°54'0 0.0 190 / 31025.9 -1.7-4.3
2017-Mar-25 02:00N 50°36' W 096°54'0 0.0 210 / 41025.5 -1.1-4.8
2017-Mar-25 01:00N 50°36' W 096°54'0 0.0 160 / 31025.2 -1.1-3.8
2017-Mar-24 23:00N 50°36' W 096°54'0 0.0 060 / 31024.9 1.2-4.3
2017-Mar-24 22:00N 50°36' W 096°54'0 0.0 030 / 51025.4 0.2-5.2
2017-Mar-24 21:00N 50°36' W 096°54'0 0.0 060 / 61026.1 -0.1-5.5
2017-Mar-24 20:00N 50°36' W 096°54'0 0.0 050 / 71026.3 -0.4-5.2
2017-Mar-24 19:00N 50°36' W 096°54'0 0.0 040 / 91025.8 -0.8-4.8
2017-Mar-24 18:00N 50°36' W 096°54'0 0.0 040 / 131025.6 -1.1-3.3
2017-Mar-24 17:00N 50°36' W 096°54'0 0.0 030 / 151025.0 -1.3-2.9
2017-Mar-24 16:00N 50°36' W 096°54'0 0.0 010 / 131024.4 -1.2-1.6
2017-Mar-24 15:00N 50°36' W 096°54'0 0.0 350 / 91024.2 -0.8-1.6
2017-Mar-24 14:00N 50°36' W 096°54'0 0.0 350 / 91023.0 -0.9-1.4
2017-Mar-24 13:00N 50°36' W 096°54'0 0.0 330 / 71022.2 -1.1-1.3
2017-Mar-24 12:00N 50°36' W 096°54'0 0.0 330 / 61021.2 -1.2-1.4
2017-Mar-24 11:00N 50°36' W 096°54'0 0.0 320 / 61020.3 -1.2-1.7
2017-Mar-24 10:00N 50°36' W 096°54'0 0.0 330 / 71019.1 -1.3-2.3
2017-Mar-24 09:00N 50°36' W 096°54'0 0.0 340 / 91017.4 -1.4-2.6
2017-Mar-24 08:00N 50°36' W 096°54'0 0.0 330 / 91017.0 -1.8-3.1
2017-Mar-24 07:00N 50°36' W 096°54'0 0.0 320 / 81017.4 -2.2-3.4
2017-Mar-24 06:00N 50°36' W 096°54'0 0.0 330 / 61017.0 -1.8-3.1
2017-Mar-24 05:00N 50°36' W 096°54'0 0.0 340 / 91016.2 -1.4-3.3
2017-Mar-24 04:00N 50°36' W 096°54'0 0.0 360 / 141015.0 -1.0-3.2
2017-Mar-24 03:00N 50°36' W 096°54'0 0.0 360 / 161013.5 -0.6-2.1
2017-Mar-24 02:00N 50°36' W 096°54'0 0.0 360 / 181012.0 0.5-1.3
2017-Mar-24 01:00N 50°36' W 096°54'0 0.0 240 / 51010.4 1.6 1.4
2017-Mar-24 00:00N 50°36' W 096°54'0 0.0 220 / 51009.5 2.8 1.2
2017-Mar-23 23:00N 50°36' W 096°54'0 0.0 210 / 61008.9 3.2 1.1
2017-Mar-23 22:00N 50°36' W 096°54'0 0.0 190 / 81008.4 3.4 0.8
2017-Mar-23 21:00N 50°36' W 096°54'0 0.0 180 / 91008.1 3.2 0.7
2017-Mar-23 20:00N 50°36' W 096°54'0 0.0 180 / 111008.2 3.1 0.3
2017-Mar-23 19:00N 50°36' W 096°54'0 0.0 190 / 121008.5 2.9 0.1
2017-Mar-23 18:00N 50°36' W 096°54'0 0.0 190 / 121008.5 2.6-0.4
2017-Mar-23 17:00N 50°36' W 096°54'0 0.0 200 / 151008.3 1.8-1.0
2017-Mar-23 16:00N 50°36' W 096°54'0 0.0 200 / 181008.5 1.0-1.5
2017-Mar-23 15:00N 50°36' W 096°54'0 0.0 190 / 211007.8 0.4-2.2
2017-Mar-23 14:00N 50°36' W 096°54'0 0.0 190 / 201008.7 -0.0-2.7
2017-Mar-23 13:00N 50°36' W 096°54'0 0.0 180 / 171009.1 -0.3-3.0
2017-Mar-23 12:00N 50°36' W 096°54'0 0.0 180 / 191009.3 -0.2-3.0
2017-Mar-23 11:00N 50°36' W 096°54'0 0.0 180 / 201010.5 0.1-3.0
2017-Mar-23 10:00N 50°36' W 096°54'0 0.0 180 / 181011.7 0.1-3.2
2017-Mar-23 09:00N 50°36' W 096°54'0 0.0 170 / 141013.2 -1.1-3.6
2017-Mar-23 08:00N 50°36' W 096°54'0 0.0 160 / 141013.8 -1.9-3.5
2017-Mar-23 07:00N 50°36' W 096°54'0 0.0 160 / 141015.6 -2.1-3.8
2017-Mar-23 06:00N 50°36' W 096°54'0 0.0 160 / 141016.3 -2.6-4.9
2017-Mar-23 05:00N 50°36' W 096°54'0 0.0 160 / 141017.4 -2.7-4.9
2017-Mar-23 04:00N 50°36' W 096°54'0 0.0 150 / 161018.6 -2.8-5.2
2017-Mar-23 03:00N 50°36' W 096°54'0 0.0 150 / 141019.7 -3.1-5.1
2017-Mar-23 02:00N 50°36' W 096°54'0 0.0 150 / 171020.9 -3.1-6.0
2017-Mar-23 01:00N 50°36' W 096°54'0 0.0 140 / 151021.2 -3.4-5.0
2017-Mar-23 00:00N 50°36' W 096°54'0 0.0 170 / 191021.6 -2.7-7.7
2017-Mar-22 23:00N 50°36' W 096°54'0 0.0 160 / 161022.6 -2.3-8.4
2017-Mar-22 22:00N 50°36' W 096°54'0 0.0 160 / 121023.2 -2.5-8.4
2017-Mar-22 21:00N 50°36' W 096°54'0 0.0 170 / 171024.3 -2.5-10.0
2017-Mar-22 20:00N 50°36' W 096°54'0 0.0 160 / 171025.9 -2.8-9.8
2017-Mar-22 19:00N 50°36' W 096°54'0 0.0 160 / 181027.4 -3.7-11.2
2017-Mar-22 18:00N 50°36' W 096°54'0 0.0 160 / 141028.5 -4.7-11.4
2017-Mar-22 17:00N 50°36' W 096°54'0 0.0 150 / 131029.8 -5.9-12.8
2017-Mar-22 16:00N 50°36' W 096°54'0 0.0 140 / 131031.3 -7.2-13.0
2017-Mar-22 15:00N 50°36' W 096°54'0 0.0 150 / 131031.3 -8.5-13.5
2017-Mar-22 14:00N 50°36' W 096°54'0 0.0 140 / 101031.9 -10.2-13.9
2017-Mar-22 13:00N 50°36' W 096°54'0 0.0 150 / 91033.2 -11.0-14.6
2017-Mar-22 12:00N 50°36' W 096°54'0 0.0 150 / 71034.0 -11.5-15.3
2017-Mar-22 11:00N 50°36' W 096°54'0 0.0 140 / 91034.4 -11.6-15.0
2017-Mar-22 10:00N 50°36' W 096°54'0 0.0 130 / 61035.3 -11.8-13.9
2017-Mar-22 09:00N 50°36' W 096°54'0 0.0 150 / 71036.6 -12.2-15.5
2017-Mar-22 08:00N 50°36' W 096°54'0 0.0 160 / 41037.0 -12.4-14.9
2017-Mar-22 07:00N 50°36' W 096°54'0 0.0 180 / 51037.3 -12.6-15.4
2017-Mar-22 06:00N 50°36' W 096°54'0 0.0 180 / 31037.7 -12.2-15.8
2017-Mar-22 05:00N 50°36' W 096°54'0 0.0 190 / 51038.2 -11.9-16.1
2017-Mar-22 04:00N 50°36' W 096°54'0 0.0 180 / 41038.4 -11.7-15.3
2017-Mar-22 03:00N 50°36' W 096°54'0 0.0 170 / 51038.6 -11.2-16.3
2017-Mar-22 02:00N 50°36' W 096°54'0 0.0 170 / 41038.8 -10.9-16.5
2017-Mar-22 01:00N 50°36' W 096°54'0 0.0 080 / 31038.9 -9.4-16.8
2017-Mar-22 00:00N 50°36' W 096°54'0 0.0 050 / 61039.0 -8.6-17.5
2017-Mar-21 23:00N 50°36' W 096°54'0 0.0 050 / 61039.6 -8.0-17.5
2017-Mar-21 22:00N 50°36' W 096°54'0 0.0 050 / 61039.6 -8.6-17.6
2017-Mar-21 21:00N 50°36' W 096°54'0 0.0 040 / 61040.0 -8.9-18.1
2017-Mar-21 20:00N 50°36' W 096°54'0 0.0 030 / 71040.3 -9.9-18.7
2017-Mar-21 19:00N 50°36' W 096°54'0 0.0 040 / 81040.6 -10.6-18.6
2017-Mar-21 18:00N 50°36' W 096°54'0 0.0 020 / 101040.8 -11.6-19.5
2017-Mar-21 17:00N 50°36' W 096°54'0 0.0 020 / 121040.8 -12.0-20.1
2017-Mar-21 16:00N 50°36' W 096°54'0 0.0 010 / 131040.8 -12.4-21.2
2017-Mar-21 15:00N 50°36' W 096°54'0 0.0 010 / 101040.5 -13.1-20.1
2017-Mar-21 14:00N 50°36' W 096°54'0 0.0 330 / 81039.8 -13.8-19.6
2017-Mar-21 13:00N 50°36' W 096°54'0 0.0 310 / 81038.8 -14.3-19.5
2017-Mar-21 12:00N 50°36' W 096°54'0 0.0 330 / 81037.8 -13.9-19.2
2017-Mar-21 11:00N 50°36' W 096°54'0 0.0 330 / 101037.0 -13.4-19.1
2017-Mar-21 10:00N 50°36' W 096°54'0 0.0 320 / 91036.0 -12.7-18.9
2017-Mar-21 09:00N 50°36' W 096°54'0 0.0 330 / 111035.2 -12.2-18.8
2017-Mar-21 08:00N 50°36' W 096°54'0 0.0 320 / 101034.8 -11.6-17.6
2017-Mar-21 07:00N 50°36' W 096°54'0 0.0 330 / 141033.7 -11.0-17.4
2017-Mar-21 06:00N 50°36' W 096°54'0 0.0 320 / 111033.0 -10.3-17.1
2017-Mar-21 05:00N 50°36' W 096°54'0 0.0 320 / 131031.8 -9.3-17.0
2017-Mar-21 04:00N 50°36' W 096°54'0 0.0 330 / 111031.0 -8.7-15.5
2017-Mar-21 03:00N 50°36' W 096°54'0 0.0 330 / 101030.1 -8.4-15.0
2017-Mar-21 02:00N 50°36' W 096°54'0 0.0 330 / 131028.7 -8.2-15.1
2017-Mar-21 01:00N 50°36' W 096°54'0 0.0 320 / 161026.9 -7.7-14.0
2017-Mar-21 00:00N 50°36' W 096°54'0 0.0 330 / 231024.4 -6.3-11.8
2017-Mar-20 23:00N 50°36' W 096°54'0 0.0 330 / 191021.6 -5.4-8.8
2017-Mar-20 22:00N 50°36' W 096°54'0 0.0 330 / 231017.8 -3.2-5.9
2017-Mar-20 21:00N 50°36' W 096°54'0 0.0 230 / 161017.2 1.4-2.3
2017-Mar-20 20:00N 50°36' W 096°54'0 0.0 260 / 141017.1 5.8-6.1
2017-Mar-20 19:00N 50°36' W 096°54'0 0.0 240 / 101017.4 5.0-5.1
2017-Mar-20 18:00N 50°36' W 096°54'0 0.0 240 / 101018.0 4.8-5.2
2017-Mar-20 17:00N 50°36' W 096°54'0 0.0 240 / 101018.3 4.3-5.5
2017-Mar-20 16:00N 50°36' W 096°54'0 0.0 240 / 81018.7 3.3-5.4
2017-Mar-20 15:00N 50°36' W 096°54'0 0.0 240 / 101018.9 2.1-5.5
2017-Mar-20 14:00N 50°36' W 096°54'0 0.0 240 / 101018.9 0.5-5.6
2017-Mar-20 13:00N 50°36' W 096°54'0 0.0 240 / 81018.7 -0.7-5.8
2017-Mar-20 12:00N 50°36' W 096°54'0 0.0 230 / 81018.4 -0.5-5.8
2017-Mar-20 11:00N 50°36' W 096°54'0 0.0 240 / 71018.0 -0.1-5.5
2017-Mar-20 10:00N 50°36' W 096°54'0 0.0 250 / 71017.7 -0.0-5.1
2017-Mar-20 09:00N 50°36' W 096°54'0 0.0 250 / 61017.6 0.3-4.9
2017-Mar-20 08:00N 50°36' W 096°54'0 0.0 250 / 61017.3 0.7-5.4
2017-Mar-20 07:00N 50°36' W 096°54'0 0.0 250 / 71016.8 1.2-5.2
2017-Mar-20 06:00N 50°36' W 096°54'0 0.0 260 / 81016.1 2.3-4.8
2017-Mar-20 05:00N 50°36' W 096°54'0 0.0 260 / 81015.5 2.8-3.6
2017-Mar-20 04:00N 50°36' W 096°54'0 0.0 270 / 81014.6 3.6-2.5
2017-Mar-20 03:00N 50°36' W 096°54'0 0.0 270 / 61013.6 4.1-1.6
2017-Mar-20 02:00N 50°36' W 096°54'0 0.0 260 / 71012.3 5.4-1.0
2017-Mar-20 01:00N 50°36' W 096°54'0 0.0 260 / 71011.0 6.4-0.4
2017-Mar-20 00:00N 50°36' W 096°54'0 0.0 270 / 91009.5 8.1 0.4
2017-Mar-19 23:00N 50°36' W 096°54'0 0.0 260 / 91008.7 9.0 0.9
2017-Mar-19 22:00N 50°36' W 096°54'0 0.0 260 / 91007.1 10.0 1.6
2017-Mar-19 21:00N 50°36' W 096°54'0 0.0 190 / 81006.2 4.8 2.4
2017-Mar-19 20:00N 50°36' W 096°54'0 0.0 190 / 121005.6 4.6 2.1
2017-Mar-19 19:00N 50°36' W 096°54'0 0.0 190 / 111005.4 3.9 1.9
2017-Mar-19 18:00N 50°36' W 096°54'0 0.0 200 / 151005.5 3.4 1.6
2017-Mar-19 17:00N 50°36' W 096°54'0 0.0 190 / 201004.8 3.2 1.4
2017-Mar-19 16:00N 50°36' W 096°54'0 0.0 180 / 181004.8 2.6 0.8
2017-Mar-19 15:00N 50°36' W 096°54'0 0.0 180 / 211004.8 2.9 0.2
2017-Mar-19 14:00N 50°36' W 096°54'0 0.0 180 / 221005.1 2.6-0.1
2017-Mar-19 13:00N 50°36' W 096°54'0 0.0 170 / 181006.3 2.1-1.0
2017-Mar-19 12:00N 50°36' W 096°54'   160 / 191007.6 0.8-1.0
Track history (hours):
 
Tides and Currents Weather Stations Pressure Air Temp Water Temp Dewpoint Dewpoint Depression Visibility Wind Speed Wind Dir Waves Ship Positions

Oceanographic research ship Namao (Canada)

Last reported at 2017-Mar-29 12:00 UTC. Time now 2017-Mar-29 13:16 UTC.
Position N 50°36' W 096°54'.

Wind from 040 at 5 knots

Barometer 1023.2 mb
Air temperature 1.2 ° C
Dewpoint 1.1 ° C

Date/timePositionNaut miles runAvg speedWind from/ knotsBaromVisibWave heightAir tempDewpointWater temp
2017-Mar-29 12:00N 50°36' W 096°54'0 0.0 040 / 51023.2 1.2 1.1
2017-Mar-29 11:00N 50°36' W 096°54'0 0.0 080 / 31023.4 1.5 0.8
2017-Mar-29 10:00N 50°36' W 096°54'0 0.0 060 / 51023.6 1.8-0.4
2017-Mar-29 09:00N 50°36' W 096°54'0 0.0 120 / 21024.1 2.3-1.7
2017-Mar-29 08:00N 50°36' W 096°54'0 0.0 010 / 41024.0 1.2-0.6
2017-Mar-29 07:00N 50°36' W 096°54'0 0.0 060 / 61024.3 1.3-0.2
2017-Mar-29 06:00N 50°36' W 096°54'0 0.0 020 / 61024.7 1.1 0.7
2017-Mar-29 05:00N 50°36' W 096°54'0 0.0 020 / 61025.3 1.2 0.2
2017-Mar-29 04:00N 50°36' W 096°54'0 0.0 010 / 61025.6 1.6-1.6
2017-Mar-29 03:00N 50°36' W 096°54'0 0.0 360 / 81025.3 1.9-2.9
2017-Mar-29 02:00N 50°36' W 096°54'0 0.0 010 / 71025.1 2.4-3.0
2017-Mar-29 01:00N 50°36' W 096°54'0 0.0 360 / 51025.1 1.5-1.8
2017-Mar-29 00:00N 50°36' W 096°54'0 0.0 350 / 51025.3 3.0-5.2
2017-Mar-28 23:00N 50°36' W 096°54'0 0.0 350 / 81025.2 2.7-5.0
2017-Mar-28 22:00N 50°36' W 096°54'0 0.0 360 / 91025.2 1.7-4.6
2017-Mar-28 21:00N 50°36' W 096°54'0 0.0 010 / 91025.5 1.9-4.7
2017-Mar-28 20:00N 50°36' W 096°54'0 0.0 010 / 91026.1 1.3-2.3
2017-Mar-28 19:00N 50°36' W 096°54'0 0.0 010 / 101026.4 -0.2-1.4
2017-Mar-28 18:00N 50°36' W 096°54'0 0.0 010 / 111027.1 -1.3-1.7
2017-Mar-28 17:00N 50°36' W 096°54'0 0.0 010 / 91027.3 -1.6-2.4
2017-Mar-28 16:00N 50°36' W 096°54'0 0.0 010 / 91026.5 -2.7-2.9
2017-Mar-28 15:00N 50°36' W 096°54'0 0.0 010 / 101026.4 -3.4-3.5
2017-Mar-28 14:00N 50°36' W 096°54'0 0.0 360 / 91025.9 -3.7-3.8
2017-Mar-28 13:00N 50°36' W 096°54'0 0.0 010 / 111025.2 -4.3-4.4
2017-Mar-28 12:00N 50°36' W 096°54'0 0.0 360 / 101024.9 -3.8-3.9
2017-Mar-28 11:00N 50°36' W 096°54'0 0.0 010 / 121024.5 -3.0-3.5
2017-Mar-28 10:00N 50°36' W 096°54'0 0.0 350 / 111023.9 -2.8-3.2
2017-Mar-28 09:00N 50°36' W 096°54'0 0.0 360 / 121023.5 -2.3-3.1
2017-Mar-28 08:00N 50°36' W 096°54'0 0.0 350 / 111023.5 -1.9-2.9
2017-Mar-28 07:00N 50°36' W 096°54'0 0.0 360 / 141023.0 -2.0-2.3
2017-Mar-28 06:00N 50°36' W 096°54'0 0.0 360 / 131022.6 -1.4-2.3
2017-Mar-28 05:00N 50°36' W 096°54'0 0.0 350 / 131022.0 -0.6-2.6
2017-Mar-28 04:00N 50°36' W 096°54'0 0.0 350 / 121021.5 -0.4-2.5
2017-Mar-28 03:00N 50°36' W 096°54'0 0.0 330 / 91020.9 0.5-1.8
2017-Mar-28 02:00N 50°36' W 096°54'0 0.0 350 / 61020.5 0.5-0.4
2017-Mar-28 01:00N 50°36' W 096°54'0 0.0 350 / 111019.6 2.0-1.4
2017-Mar-28 00:00N 50°36' W 096°54'0 0.0 010 / 111019.4 2.1-0.3
2017-Mar-27 23:00N 50°36' W 096°54'0 0.0 010 / 101019.0 2.8-0.2
2017-Mar-27 22:00N 50°36' W 096°54'0 0.0 010 / 101018.9 2.9-0.4
2017-Mar-27 21:00N 50°36' W 096°54'0 0.0 010 / 121018.7 3.0 0.2
2017-Mar-27 20:00N 50°36' W 096°54'0 0.0 010 / 121018.4 2.1 2.0
2017-Mar-27 19:00N 50°36' W 096°54'0 0.0 010 / 131018.4 1.4 1.4
2017-Mar-27 18:00N 50°36' W 096°54'0 0.0 010 / 111018.4 1.1 1.1
2017-Mar-27 17:00N 50°36' W 096°54'0 0.0 010 / 121018.3 1.0 1.0
2017-Mar-27 16:00N 50°36' W 096°54'0 0.0 010 / 111018.2 1.4-1.1
2017-Mar-27 15:00N 50°36' W 096°54'0 0.0 360 / 91018.3 0.2-2.2
2017-Mar-27 14:00N 50°36' W 096°54'0 0.0 350 / 71017.7 -0.1-2.8
2017-Mar-27 13:00N 50°36' W 096°54'0 0.0 330 / 41017.2 -0.5-1.8
2017-Mar-27 12:00N 50°36' W 096°54'0 0.0 030 / 51016.7 -0.3-2.1
2017-Mar-27 11:00N 50°36' W 096°54'0 0.0 010 / 71015.9 -0.6-0.8
2017-Mar-27 10:00N 50°36' W 096°54'0 0.0 020 / 71016.6 -0.0-3.0
2017-Mar-27 09:00N 50°36' W 096°54'0 0.0 340 / 31017.3 0.4-4.6
2017-Mar-27 08:00N 50°36' W 096°54'0 0.0 010 / 71016.3 0.1-2.1
2017-Mar-27 07:00N 50°36' W 096°54'0 0.0 010 / 61016.0 -0.1-0.2
2017-Mar-27 06:00N 50°36' W 096°54'0 0.0 010 / 51016.1 -0.3-0.2
2017-Mar-27 05:00N 50°36' W 096°54'0 0.0 340 / 21016.1 -0.4-0.3
2017-Mar-27 04:00N 50°36' W 096°54'0 0.0 270 / 51015.9 -0.1-0.0
2017-Mar-27 03:00N 50°36' W 096°54'0 0.0 270 / 31015.6 -0.1-0.0
2017-Mar-27 02:00N 50°36' W 096°54'0 0.0 300 / 11015.7 0.6 0.6
2017-Mar-27 01:00N 50°36' W 096°54'0 0.0 320 / 31015.6 1.2 1.2
2017-Mar-27 00:00N 50°36' W 096°54'0 0.0 070 / 11015.3 4.2 2.8
2017-Mar-26 23:00N 50°36' W 096°54'0 0.0 1015.3 4.4 3.5
2017-Mar-26 22:00N 50°36' W 096°54'0 0.0 060 / 51015.5 2.8 2.7
2017-Mar-26 21:00N 50°36' W 096°54'0 0.0 050 / 61015.8 1.7 1.8
2017-Mar-26 20:00N 50°36' W 096°54'0 0.0 060 / 61015.9 1.7 1.8
2017-Mar-26 19:00N 50°36' W 096°54'0 0.0 070 / 61016.0 1.5 1.7
2017-Mar-26 18:00N 50°36' W 096°54'0 0.0 060 / 71015.9 1.3 1.5
2017-Mar-26 17:00N 50°36' W 096°54'0 0.0 020 / 121015.5 1.5 1.6
2017-Mar-26 16:00N 50°36' W 096°54'0 0.0 020 / 61015.4 2.0 2.1
2017-Mar-26 15:00N 50°36' W 096°54'0 0.0 350 / 61014.8 1.9 2.0
2017-Mar-26 14:00N 50°36' W 096°54'0 0.0 270 / 21015.0 0.9 1.2
2017-Mar-26 13:00N 50°36' W 096°54'0 0.0 170 / 21014.8 -0.3-0.0
2017-Mar-26 12:00N 50°36' W 096°54'0 0.0 210 / 11014.4 0.1 0.4
2017-Mar-26 11:00N 50°36' W 096°54'0 0.0 200 / 31014.2 0.3 0.5
2017-Mar-26 10:00N 50°36' W 096°54'0 0.0 190 / 51014.1 0.5 0.7
2017-Mar-26 09:00N 50°36' W 096°54'0 0.0 190 / 71014.1 0.9 1.0
2017-Mar-26 08:00N 50°36' W 096°54'0 0.0 200 / 81014.0 1.1 1.1
2017-Mar-26 07:00N 50°36' W 096°54'0 0.0 190 / 131013.6 1.2 1.3
2017-Mar-26 06:00N 50°36' W 096°54'0 0.0 190 / 141013.6 1.2 1.2
2017-Mar-26 05:00N 50°36' W 096°54'0 0.0 190 / 151014.0 1.4 1.4
2017-Mar-26 04:00N 50°36' W 096°54'0 0.0 190 / 161014.0 1.6 1.5
2017-Mar-26 03:00N 50°36' W 096°54'0 0.0 180 / 191014.4 1.5 1.5
2017-Mar-26 02:00N 50°36' W 096°54'0 0.0 190 / 121014.8 1.6 1.6
2017-Mar-26 01:00N 50°36' W 096°54'0 0.0 180 / 131014.7 2.3 2.2
2017-Mar-26 00:00N 50°36' W 096°54'0 0.0 180 / 171014.6 3.0 1.2
2017-Mar-25 23:00N 50°36' W 096°54'0 0.0 170 / 191014.9 2.4 1.3
2017-Mar-25 22:00N 50°36' W 096°54'0 0.0 170 / 221015.2 2.3 1.0
2017-Mar-25 21:00N 50°36' W 096°54'0 0.0 170 / 251015.6 2.2 1.0
2017-Mar-25 20:00N 50°36' W 096°54'0 0.0 160 / 221017.1 2.1 1.5
2017-Mar-25 19:00N 50°36' W 096°54'0 0.0 160 / 191018.5 2.5 1.5
2017-Mar-25 18:00N 50°36' W 096°54'0 0.0 160 / 181019.0 1.8 1.7
2017-Mar-25 17:00N 50°36' W 096°54'0 0.0 160 / 181019.6 1.6 1.5
2017-Mar-25 16:00N 50°36' W 096°54'0 0.0 160 / 131020.5 0.1 0.1
2017-Mar-25 15:00N 50°36' W 096°54'0 0.0 160 / 111021.0 -1.3-1.3
2017-Mar-25 14:00N 50°36' W 096°54'0 0.0 140 / 111021.2 -1.9-1.9
2017-Mar-25 13:00N 50°36' W 096°54'0 0.0 140 / 111021.9 -2.3-2.3
2017-Mar-25 12:00N 50°36' W 096°54'0 0.0 130 / 81022.4 -2.2-2.2
2017-Mar-25 11:00N 50°36' W 096°54'0 0.0 150 / 41023.5 -3.4-3.4
2017-Mar-25 10:00N 50°36' W 096°54'0 0.0 120 / 61023.9 -3.1-3.1
2017-Mar-25 09:00N 50°36' W 096°54'0 0.0 150 / 41024.4 -4.1-4.1
2017-Mar-25 08:00N 50°36' W 096°54'0 0.0 160 / 31025.2 -3.6-3.7
2017-Mar-25 07:00N 50°36' W 096°54'0 0.0 150 / 31025.3 -3.4-3.5
2017-Mar-25 06:00N 50°36' W 096°54'0 0.0 150 / 31025.7 -3.1-3.1
2017-Mar-25 05:00N 50°36' W 096°54'0 0.0 140 / 21025.8 -2.5-2.5
2017-Mar-25 04:00N 50°36' W 096°54'0 0.0 180 / 41026.1 -2.7-2.8
2017-Mar-25 03:00N 50°36' W 096°54'0 0.0 190 / 31025.9 -1.7-4.3
2017-Mar-25 02:00N 50°36' W 096°54'0 0.0 210 / 41025.5 -1.1-4.8
2017-Mar-25 01:00N 50°36' W 096°54'0 0.0 160 / 31025.2 -1.1-3.8
2017-Mar-24 23:00N 50°36' W 096°54'0 0.0 060 / 31024.9 1.2-4.3
2017-Mar-24 22:00N 50°36' W 096°54'0 0.0 030 / 51025.4 0.2-5.2
2017-Mar-24 21:00N 50°36' W 096°54'0 0.0 060 / 61026.1 -0.1-5.5
2017-Mar-24 20:00N 50°36' W 096°54'0 0.0 050 / 71026.3 -0.4-5.2
2017-Mar-24 19:00N 50°36' W 096°54'0 0.0 040 / 91025.8 -0.8-4.8
2017-Mar-24 18:00N 50°36' W 096°54'0 0.0 040 / 131025.6 -1.1-3.3
2017-Mar-24 17:00N 50°36' W 096°54'0 0.0 030 / 151025.0 -1.3-2.9
2017-Mar-24 16:00N 50°36' W 096°54'0 0.0 010 / 131024.4 -1.2-1.6
2017-Mar-24 15:00N 50°36' W 096°54'0 0.0 350 / 91024.2 -0.8-1.6
2017-Mar-24 14:00N 50°36' W 096°54'0 0.0 350 / 91023.0 -0.9-1.4
2017-Mar-24 13:00N 50°36' W 096°54'0 0.0 330 / 71022.2 -1.1-1.3
2017-Mar-24 12:00N 50°36' W 096°54'0 0.0 330 / 61021.2 -1.2-1.4
2017-Mar-24 11:00N 50°36' W 096°54'0 0.0 320 / 61020.3 -1.2-1.7
2017-Mar-24 10:00N 50°36' W 096°54'0 0.0 330 / 71019.1 -1.3-2.3
2017-Mar-24 09:00N 50°36' W 096°54'0 0.0 340 / 91017.4 -1.4-2.6
2017-Mar-24 08:00N 50°36' W 096°54'0 0.0 330 / 91017.0 -1.8-3.1
2017-Mar-24 07:00N 50°36' W 096°54'0 0.0 320 / 81017.4 -2.2-3.4
2017-Mar-24 06:00N 50°36' W 096°54'0 0.0 330 / 61017.0 -1.8-3.1
2017-Mar-24 05:00N 50°36' W 096°54'0 0.0 340 / 91016.2 -1.4-3.3
2017-Mar-24 04:00N 50°36' W 096°54'0 0.0 360 / 141015.0 -1.0-3.2
2017-Mar-24 03:00N 50°36' W 096°54'0 0.0 360 / 161013.5 -0.6-2.1
2017-Mar-24 02:00N 50°36' W 096°54'0 0.0 360 / 181012.0 0.5-1.3
2017-Mar-24 01:00N 50°36' W 096°54'0 0.0 240 / 51010.4 1.6 1.4
2017-Mar-24 00:00N 50°36' W 096°54'0 0.0 220 / 51009.5 2.8 1.2
2017-Mar-23 23:00N 50°36' W 096°54'0 0.0 210 / 61008.9 3.2 1.1
2017-Mar-23 22:00N 50°36' W 096°54'0 0.0 190 / 81008.4 3.4 0.8
2017-Mar-23 21:00N 50°36' W 096°54'0 0.0 180 / 91008.1 3.2 0.7
2017-Mar-23 20:00N 50°36' W 096°54'0 0.0 180 / 111008.2 3.1 0.3
2017-Mar-23 19:00N 50°36' W 096°54'0 0.0 190 / 121008.5 2.9 0.1
2017-Mar-23 18:00N 50°36' W 096°54'0 0.0 190 / 121008.5 2.6-0.4
2017-Mar-23 17:00N 50°36' W 096°54'0 0.0 200 / 151008.3 1.8-1.0
2017-Mar-23 16:00N 50°36' W 096°54'0 0.0 200 / 181008.5 1.0-1.5
2017-Mar-23 15:00N 50°36' W 096°54'0 0.0 190 / 211007.8 0.4-2.2
2017-Mar-23 14:00N 50°36' W 096°54'0 0.0 190 / 201008.7 -0.0-2.7
2017-Mar-23 13:00N 50°36' W 096°54'0 0.0 180 / 171009.1 -0.3-3.0
2017-Mar-23 12:00N 50°36' W 096°54'0 0.0 180 / 191009.3 -0.2-3.0
2017-Mar-23 11:00N 50°36' W 096°54'0 0.0 180 / 201010.5 0.1-3.0
2017-Mar-23 10:00N 50°36' W 096°54'0 0.0 180 / 181011.7 0.1-3.2
2017-Mar-23 09:00N 50°36' W 096°54'0 0.0 170 / 141013.2 -1.1-3.6
2017-Mar-23 08:00N 50°36' W 096°54'0 0.0 160 / 141013.8 -1.9-3.5
2017-Mar-23 07:00N 50°36' W 096°54'0 0.0 160 / 141015.6 -2.1-3.8
2017-Mar-23 06:00N 50°36' W 096°54'0 0.0 160 / 141016.3 -2.6-4.9
2017-Mar-23 05:00N 50°36' W 096°54'0 0.0 160 / 141017.4 -2.7-4.9
2017-Mar-23 04:00N 50°36' W 096°54'0 0.0 150 / 161018.6 -2.8-5.2
2017-Mar-23 03:00N 50°36' W 096°54'0 0.0 150 / 141019.7 -3.1-5.1
2017-Mar-23 02:00N 50°36' W 096°54'0 0.0 150 / 171020.9 -3.1-6.0
2017-Mar-23 01:00N 50°36' W 096°54'0 0.0 140 / 151021.2 -3.4-5.0
2017-Mar-23 00:00N 50°36' W 096°54'0 0.0 170 / 191021.6 -2.7-7.7
2017-Mar-22 23:00N 50°36' W 096°54'0 0.0 160 / 161022.6 -2.3-8.4
2017-Mar-22 22:00N 50°36' W 096°54'0 0.0 160 / 121023.2 -2.5-8.4
2017-Mar-22 21:00N 50°36' W 096°54'0 0.0 170 / 171024.3 -2.5-10.0
2017-Mar-22 20:00N 50°36' W 096°54'0 0.0 160 / 171025.9 -2.8-9.8
2017-Mar-22 19:00N 50°36' W 096°54'0 0.0 160 / 181027.4 -3.7-11.2
2017-Mar-22 18:00N 50°36' W 096°54'0 0.0 160 / 141028.5 -4.7-11.4
2017-Mar-22 17:00N 50°36' W 096°54'0 0.0 150 / 131029.8 -5.9-12.8
2017-Mar-22 16:00N 50°36' W 096°54'0 0.0 140 / 131031.3 -7.2-13.0
2017-Mar-22 15:00N 50°36' W 096°54'0 0.0 150 / 131031.3 -8.5-13.5
2017-Mar-22 14:00N 50°36' W 096°54'0 0.0 140 / 101031.9 -10.2-13.9
2017-Mar-22 13:00N 50°36' W 096°54'0 0.0 150 / 91033.2 -11.0-14.6
2017-Mar-22 12:00N 50°36' W 096°54'0 0.0 150 / 71034.0 -11.5-15.3
2017-Mar-22 11:00N 50°36' W 096°54'0 0.0 140 / 91034.4 -11.6-15.0
2017-Mar-22 10:00N 50°36' W 096°54'0 0.0 130 / 61035.3 -11.8-13.9
2017-Mar-22 09:00N 50°36' W 096°54'0 0.0 150 / 71036.6 -12.2-15.5
2017-Mar-22 08:00N 50°36' W 096°54'0 0.0 160 / 41037.0 -12.4-14.9
2017-Mar-22 07:00N 50°36' W 096°54'0 0.0 180 / 51037.3 -12.6-15.4
2017-Mar-22 06:00N 50°36' W 096°54'0 0.0 180 / 31037.7 -12.2-15.8
2017-Mar-22 05:00N 50°36' W 096°54'0 0.0 190 / 51038.2 -11.9-16.1
2017-Mar-22 04:00N 50°36' W 096°54'0 0.0 180 / 41038.4 -11.7-15.3
2017-Mar-22 03:00N 50°36' W 096°54'0 0.0 170 / 51038.6 -11.2-16.3
2017-Mar-22 02:00N 50°36' W 096°54'0 0.0 170 / 41038.8 -10.9-16.5
2017-Mar-22 01:00N 50°36' W 096°54'0 0.0 080 / 31038.9 -9.4-16.8
2017-Mar-22 00:00N 50°36' W 096°54'0 0.0 050 / 61039.0 -8.6-17.5
2017-Mar-21 23:00N 50°36' W 096°54'0 0.0 050 / 61039.6 -8.0-17.5
2017-Mar-21 22:00N 50°36' W 096°54'0 0.0 050 / 61039.6 -8.6-17.6
2017-Mar-21 21:00N 50°36' W 096°54'0 0.0 040 / 61040.0 -8.9-18.1
2017-Mar-21 20:00N 50°36' W 096°54'0 0.0 030 / 71040.3 -9.9-18.7
2017-Mar-21 19:00N 50°36' W 096°54'0 0.0 040 / 81040.6 -10.6-18.6
2017-Mar-21 18:00N 50°36' W 096°54'0 0.0 020 / 101040.8 -11.6-19.5
2017-Mar-21 17:00N 50°36' W 096°54'0 0.0 020 / 121040.8 -12.0-20.1
2017-Mar-21 16:00N 50°36' W 096°54'0 0.0 010 / 131040.8 -12.4-21.2
2017-Mar-21 15:00N 50°36' W 096°54'0 0.0 010 / 101040.5 -13.1-20.1
2017-Mar-21 14:00N 50°36' W 096°54'0 0.0 330 / 81039.8 -13.8-19.6
2017-Mar-21 13:00N 50°36' W 096°54'0 0.0 310 / 81038.8 -14.3-19.5
2017-Mar-21 12:00N 50°36' W 096°54'0 0.0 330 / 81037.8 -13.9-19.2
2017-Mar-21 11:00N 50°36' W 096°54'0 0.0 330 / 101037.0 -13.4-19.1
2017-Mar-21 10:00N 50°36' W 096°54'0 0.0 320 / 91036.0 -12.7-18.9
2017-Mar-21 09:00N 50°36' W 096°54'0 0.0 330 / 111035.2 -12.2-18.8
2017-Mar-21 08:00N 50°36' W 096°54'0 0.0 320 / 101034.8 -11.6-17.6
2017-Mar-21 07:00N 50°36' W 096°54'0 0.0 330 / 141033.7 -11.0-17.4
2017-Mar-21 06:00N 50°36' W 096°54'0 0.0 320 / 111033.0 -10.3-17.1
2017-Mar-21 05:00N 50°36' W 096°54'0 0.0 320 / 131031.8 -9.3-17.0
2017-Mar-21 04:00N 50°36' W 096°54'0 0.0 330 / 111031.0 -8.7-15.5
2017-Mar-21 03:00N 50°36' W 096°54'0 0.0 330 / 101030.1 -8.4-15.0
2017-Mar-21 02:00N 50°36' W 096°54'0 0.0 330 / 131028.7 -8.2-15.1
2017-Mar-21 01:00N 50°36' W 096°54'0 0.0 320 / 161026.9 -7.7-14.0
2017-Mar-21 00:00N 50°36' W 096°54'0 0.0 330 / 231024.4 -6.3-11.8
2017-Mar-20 23:00N 50°36' W 096°54'0 0.0 330 / 191021.6 -5.4-8.8
2017-Mar-20 22:00N 50°36' W 096°54'0 0.0 330 / 231017.8 -3.2-5.9
2017-Mar-20 21:00N 50°36' W 096°54'0 0.0 230 / 161017.2 1.4-2.3
2017-Mar-20 20:00N 50°36' W 096°54'0 0.0 260 / 141017.1 5.8-6.1
2017-Mar-20 19:00N 50°36' W 096°54'0 0.0 240 / 101017.4 5.0-5.1
2017-Mar-20 18:00N 50°36' W 096°54'0 0.0 240 / 101018.0 4.8-5.2
2017-Mar-20 17:00N 50°36' W 096°54'0 0.0 240 / 101018.3 4.3-5.5
2017-Mar-20 16:00N 50°36' W 096°54'0 0.0 240 / 81018.7 3.3-5.4
2017-Mar-20 15:00N 50°36' W 096°54'0 0.0 240 / 101018.9 2.1-5.5
2017-Mar-20 14:00N 50°36' W 096°54'0 0.0 240 / 101018.9 0.5-5.6
2017-Mar-20 13:00N 50°36' W 096°54'0 0.0 240 / 81018.7 -0.7-5.8
2017-Mar-20 12:00N 50°36' W 096°54'0 0.0 230 / 81018.4 -0.5-5.8
2017-Mar-20 11:00N 50°36' W 096°54'0 0.0 240 / 71018.0 -0.1-5.5
2017-Mar-20 10:00N 50°36' W 096°54'0 0.0 250 / 71017.7 -0.0-5.1
2017-Mar-20 09:00N 50°36' W 096°54'0 0.0 250 / 61017.6 0.3-4.9
2017-Mar-20 08:00N 50°36' W 096°54'0 0.0 250 / 61017.3 0.7-5.4
2017-Mar-20 07:00N 50°36' W 096°54'0 0.0 250 / 71016.8 1.2-5.2
2017-Mar-20 06:00N 50°36' W 096°54'0 0.0 260 / 81016.1 2.3-4.8
2017-Mar-20 05:00N 50°36' W 096°54'0 0.0 260 / 81015.5 2.8-3.6
2017-Mar-20 04:00N 50°36' W 096°54'0 0.0 270 / 81014.6 3.6-2.5
2017-Mar-20 03:00N 50°36' W 096°54'0 0.0 270 / 61013.6 4.1-1.6
2017-Mar-20 02:00N 50°36' W 096°54'0 0.0 260 / 71012.3 5.4-1.0
2017-Mar-20 01:00N 50°36' W 096°54'0 0.0 260 / 71011.0 6.4-0.4
2017-Mar-20 00:00N 50°36' W 096°54'0 0.0 270 / 91009.5 8.1 0.4
2017-Mar-19 23:00N 50°36' W 096°54'0 0.0 260 / 91008.7 9.0 0.9
2017-Mar-19 22:00N 50°36' W 096°54'0 0.0 260 / 91007.1 10.0 1.6
2017-Mar-19 21:00N 50°36' W 096°54'0 0.0 190 / 81006.2 4.8 2.4
2017-Mar-19 20:00N 50°36' W 096°54'0 0.0 190 / 121005.6 4.6 2.1
2017-Mar-19 19:00N 50°36' W 096°54'0 0.0 190 / 111005.4 3.9 1.9
2017-Mar-19 18:00N 50°36' W 096°54'0 0.0 200 / 151005.5 3.4 1.6
2017-Mar-19 17:00N 50°36' W 096°54'0 0.0 190 / 201004.8 3.2 1.4
2017-Mar-19 16:00N 50°36' W 096°54'0 0.0 180 / 181004.8 2.6 0.8
2017-Mar-19 15:00N 50°36' W 096°54'0 0.0 180 / 211004.8 2.9 0.2
2017-Mar-19 14:00N 50°36' W 096°54'0 0.0 180 / 221005.1 2.6-0.1
2017-Mar-19 13:00N 50°36' W 096°54'0 0.0 170 / 181006.3 2.1-1.0
2017-Mar-19 12:00N 50°36' W 096°54'   160 / 191007.6 0.8-1.0

Dump ship's entire track history